createdAt,value
2024-01-09T00:00:26.686Z,24.84
2024-01-09T00:01:26.686Z,24.80
2024-01-09T00:02:26.708Z,24.82
2024-01-09T00:03:26.727Z,24.79
2024-01-09T00:04:26.672Z,24.84
2024-01-09T00:57:52.418Z,24.61
2024-01-09T00:58:25.163Z,24.64
2024-01-09T00:59:26.210Z,24.59
2024-01-09T01:00:26.130Z,24.59
2024-01-09T01:01:26.656Z,24.59
2024-01-09T01:02:26.186Z,24.57
2024-01-09T01:03:26.118Z,24.43
2024-01-09T01:04:26.166Z,24.59
2024-01-09T01:05:26.191Z,24.56
2024-01-09T01:06:26.080Z,24.56
2024-01-09T01:07:26.066Z,24.52
2024-01-09T01:08:26.105Z,24.51
2024-01-09T01:09:26.075Z,24.47
2024-01-09T01:10:26.062Z,24.55
2024-01-09T01:11:26.072Z,24.45
2024-01-09T01:12:26.041Z,24.49
2024-01-09T01:13:26.045Z,24.36
2024-01-09T01:14:26.101Z,24.53
2024-01-09T01:15:25.997Z,24.55
2024-01-09T01:16:25.974Z,24.52
2024-01-09T01:17:26.734Z,24.57
2024-01-09T01:18:26.053Z,24.51
2024-01-09T01:19:25.974Z,24.49
2024-01-09T01:20:25.998Z,24.48
2024-01-09T01:21:25.931Z,24.51
2024-01-09T01:22:25.921Z,24.49
2024-01-09T01:23:25.947Z,24.43
2024-01-09T01:24:25.926Z,24.43
2024-01-09T01:25:25.901Z,24.44
2024-01-09T01:26:25.913Z,24.44
2024-01-09T01:27:25.892Z,24.40
2024-01-09T01:28:25.875Z,24.45
2024-01-09T01:29:25.937Z,24.39
2024-01-09T01:30:25.935Z,24.40
2024-01-09T01:31:25.841Z,24.45
2024-01-09T01:32:26.179Z,24.45
2024-01-09T01:33:28.771Z,24.45
2024-01-09T01:34:25.879Z,24.44
2024-01-09T01:35:25.826Z,24.43
2024-01-09T01:36:25.796Z,24.45
2024-01-09T01:37:25.796Z,24.39
2024-01-09T01:38:25.797Z,24.21
2024-01-09T01:39:25.771Z,24.13
2024-01-09T01:40:25.760Z,24.25
2024-01-09T01:41:25.773Z,24.36
2024-01-09T01:42:25.739Z,24.44
2024-01-09T01:43:24.753Z,24.37
2024-01-09T01:44:25.761Z,24.40
2024-01-09T01:45:25.737Z,24.33
2024-01-09T01:46:28.672Z,24.40
2024-01-09T01:47:24.893Z,24.37
2024-01-09T01:48:25.833Z,24.34
2024-01-09T01:49:25.704Z,24.41
2024-01-09T01:50:25.775Z,24.40
2024-01-09T01:51:25.656Z,24.41
2024-01-09T01:52:25.668Z,24.26
2024-01-09T01:53:25.046Z,24.37
2024-01-09T01:54:25.883Z,24.37
2024-01-09T01:55:25.844Z,24.36
2024-01-09T01:56:25.939Z,24.27
2024-01-09T01:57:26.667Z,24.32
2024-01-09T01:58:25.816Z,24.32
2024-01-09T01:59:25.836Z,24.29
2024-01-09T02:00:25.800Z,24.34
2024-01-09T02:01:25.848Z,24.35
2024-01-09T02:02:26.742Z,24.33
2024-01-09T02:03:28.689Z,24.36
2024-01-09T02:04:25.838Z,24.34
2024-01-09T02:05:26.130Z,24.33
2024-01-09T02:06:25.881Z,24.36
2024-01-09T02:07:25.778Z,24.37
2024-01-09T02:08:25.809Z,24.34
2024-01-09T02:09:26.197Z,24.30
2024-01-09T02:10:25.746Z,24.32
2024-01-09T02:11:25.754Z,24.27
2024-01-09T02:12:25.734Z,24.32
2024-01-09T02:13:25.732Z,24.18
2024-01-09T02:14:26.771Z,24.14
2024-01-09T02:15:25.700Z,24.17
2024-01-09T02:16:25.699Z,24.12
2024-01-09T02:17:31.992Z,24.26
2024-01-09T02:18:26.551Z,24.16
2024-01-09T02:19:25.693Z,24.25
2024-01-09T02:20:25.736Z,24.24
2024-01-09T02:21:25.648Z,24.11
2024-01-09T02:22:25.646Z,24.25
2024-01-09T02:23:25.674Z,24.29
2024-01-09T02:24:25.666Z,24.24
2024-01-09T02:25:25.617Z,24.25
2024-01-09T02:26:40.482Z,24.25
2024-01-09T02:27:25.633Z,24.28
2024-01-09T02:28:25.681Z,24.25
2024-01-09T02:29:25.673Z,24.26
2024-01-09T02:30:25.622Z,24.26
2024-01-09T02:31:25.554Z,24.29
2024-01-09T02:32:26.611Z,24.24
2024-01-09T02:33:25.864Z,24.21
2024-01-09T02:34:25.649Z,24.22
2024-01-09T02:35:28.205Z,24.23
2024-01-09T02:36:25.691Z,24.19
2024-01-09T02:37:25.518Z,24.25
2024-01-09T02:38:25.565Z,24.17
2024-01-09T02:39:25.488Z,24.21
2024-01-09T02:40:25.506Z,24.23
2024-01-09T02:41:25.508Z,24.24
2024-01-09T02:42:25.515Z,24.22
2024-01-09T02:43:25.455Z,24.27
2024-01-09T02:44:24.469Z,24.19
2024-01-09T02:45:25.452Z,24.21
2024-01-09T02:46:25.424Z,24.22
2024-01-09T02:47:25.466Z,24.26
2024-01-09T02:48:25.524Z,24.24
2024-01-09T02:49:28.300Z,24.25
2024-01-09T02:50:25.466Z,24.21
2024-01-09T02:51:25.392Z,24.21
2024-01-09T02:52:26.499Z,24.03
2024-01-09T02:53:25.613Z,24.19
2024-01-09T02:54:25.397Z,24.18
2024-01-09T02:55:25.393Z,24.13
2024-01-09T02:56:25.456Z,24.25
2024-01-09T02:57:25.374Z,24.08
2024-01-09T02:58:25.378Z,24.06
2024-01-09T02:59:25.416Z,24.18
2024-01-09T03:00:25.370Z,24.18
2024-01-09T03:01:25.361Z,24.12
2024-01-09T03:02:25.426Z,24.14
2024-01-09T03:03:25.432Z,24.12
2024-01-09T03:04:25.318Z,24.11
2024-01-09T03:05:25.398Z,24.10
2024-01-09T03:06:25.374Z,24.17
2024-01-09T03:07:25.376Z,24.14
2024-01-09T03:08:25.292Z,24.10
2024-01-09T03:09:25.257Z,24.15
2024-01-09T03:10:25.262Z,24.11
2024-01-09T03:11:25.276Z,24.15
2024-01-09T03:12:25.234Z,24.10
2024-01-09T03:13:25.242Z,24.08
2024-01-09T03:14:25.267Z,24.13
2024-01-09T03:15:25.211Z,24.14
2024-01-09T03:16:25.198Z,24.07
2024-01-09T03:17:25.268Z,24.10
2024-01-09T03:18:25.410Z,24.11
2024-01-09T03:19:25.771Z,24.03
2024-01-09T03:20:25.754Z,24.06
2024-01-09T03:21:25.190Z,23.94
2024-01-09T03:22:25.148Z,24.08
2024-01-09T03:23:25.222Z,24.06
2024-01-09T03:24:25.127Z,24.07
2024-01-09T03:25:25.219Z,24.00
2024-01-09T03:26:25.131Z,23.99
2024-01-09T03:27:25.115Z,23.97
2024-01-09T03:28:25.714Z,23.96
2024-01-09T03:29:25.143Z,24.02
2024-01-09T03:30:25.084Z,24.05
2024-01-09T03:31:25.069Z,24.04
2024-01-09T03:32:25.196Z,24.04
2024-01-09T03:33:25.313Z,24.00
2024-01-09T03:34:25.049Z,24.04
2024-01-09T03:35:25.046Z,23.97
2024-01-09T03:36:25.036Z,24.06
2024-01-09T03:37:27.736Z,24.03
2024-01-09T03:38:25.767Z,24.06
2024-01-09T03:39:25.006Z,24.03
2024-01-09T03:40:24.984Z,24.04
2024-01-09T03:41:24.005Z,24.03
2024-01-09T03:42:24.985Z,24.04
2024-01-09T03:43:24.985Z,24.01
2024-01-09T03:44:25.036Z,23.97
2024-01-09T03:45:24.966Z,24.03
2024-01-09T03:46:24.947Z,24.03
2024-01-09T03:47:24.960Z,24.03
2024-01-09T03:48:24.960Z,24.00
2024-01-09T03:49:25.808Z,23.96
2024-01-09T03:50:24.979Z,24.01
2024-01-09T03:51:24.876Z,24.04
2024-01-09T03:52:25.734Z,24.03
2024-01-09T03:53:24.990Z,24.02
2024-01-09T03:54:24.867Z,23.97
2024-01-09T03:55:24.993Z,23.88
2024-01-09T03:56:24.879Z,23.97
2024-01-09T03:57:25.245Z,23.93
2024-01-09T03:58:24.836Z,23.96
2024-01-09T03:59:24.924Z,24.00
2024-01-09T04:00:24.882Z,23.80
2024-01-09T04:01:24.878Z,23.99
2024-01-09T04:02:27.745Z,23.97
2024-01-09T04:03:27.794Z,23.96
2024-01-09T04:04:26.907Z,23.95
2024-01-09T04:05:24.895Z,23.95
2024-01-09T04:06:24.775Z,23.96
2024-01-09T04:07:24.745Z,23.92
2024-01-09T04:08:24.754Z,23.96
2024-01-09T04:09:24.752Z,23.98
2024-01-09T04:10:24.704Z,23.93
2024-01-09T04:11:24.720Z,23.92
2024-01-09T04:12:24.700Z,24.00
2024-01-09T04:13:24.694Z,23.97
2024-01-09T04:14:24.701Z,23.86
2024-01-09T04:15:24.659Z,23.95
2024-01-09T04:16:24.650Z,23.92
2024-01-09T04:17:24.717Z,23.93
2024-01-09T04:18:24.849Z,23.97
2024-01-09T04:19:24.652Z,23.92
2024-01-09T04:20:24.659Z,23.97
2024-01-09T04:21:24.600Z,23.94
2024-01-09T04:22:24.659Z,23.88
2024-01-09T04:23:24.632Z,23.96
2024-01-09T04:24:24.591Z,23.74
2024-01-09T04:25:24.607Z,23.93
2024-01-09T04:26:24.612Z,23.95
2024-01-09T04:27:24.546Z,23.90
2024-01-09T04:28:24.544Z,23.95
2024-01-09T04:29:24.555Z,23.88
2024-01-09T04:30:24.542Z,23.81
2024-01-09T04:31:24.522Z,23.91
2024-01-09T04:32:24.659Z,23.88
2024-01-09T04:33:24.661Z,23.92
2024-01-09T04:34:23.618Z,23.86
2024-01-09T04:35:24.521Z,23.89
2024-01-09T04:36:24.471Z,23.89
2024-01-09T04:37:24.454Z,23.81
2024-01-09T04:38:24.490Z,23.88
2024-01-09T04:39:24.457Z,23.82
2024-01-09T04:40:24.431Z,23.84
2024-01-09T04:41:24.511Z,23.88
2024-01-09T04:42:24.413Z,23.86
2024-01-09T04:43:24.414Z,23.79
2024-01-09T04:44:24.504Z,23.85
2024-01-09T04:45:24.470Z,23.89
2024-01-09T04:46:24.759Z,23.88
2024-01-09T04:47:24.549Z,23.76
2024-01-09T04:48:25.407Z,23.81
2024-01-09T04:49:23.471Z,23.85
2024-01-09T04:50:24.398Z,23.85
2024-01-09T04:51:24.332Z,23.77
2024-01-09T04:52:24.320Z,23.80
2024-01-09T04:53:24.339Z,23.82
2024-01-09T04:54:24.301Z,23.81
2024-01-09T04:55:24.298Z,23.89
2024-01-09T04:56:23.314Z,23.84
2024-01-09T04:57:24.305Z,23.86
2024-01-09T04:58:24.273Z,23.84
2024-01-09T04:59:24.285Z,23.82
2024-01-09T05:00:24.248Z,23.81
2024-01-09T05:01:27.493Z,23.82
2024-01-09T05:02:24.264Z,23.80
2024-01-09T05:03:24.300Z,23.81
2024-01-09T05:04:24.226Z,23.80
2024-01-09T05:05:24.245Z,23.80
2024-01-09T05:06:24.361Z,23.84
2024-01-09T05:07:24.188Z,23.81
2024-01-09T05:08:24.796Z,23.82
2024-01-09T05:09:24.184Z,23.62
2024-01-09T05:10:24.172Z,23.80
2024-01-09T05:11:24.199Z,23.80
2024-01-09T05:12:24.144Z,23.84
2024-01-09T05:13:24.160Z,23.80
2024-01-09T05:14:24.152Z,23.77
2024-01-09T05:15:24.115Z,23.77
2024-01-09T05:16:24.101Z,23.66
2024-01-09T05:17:24.260Z,23.74
2024-01-09T05:18:24.232Z,23.72
2024-01-09T05:19:24.263Z,23.77
2024-01-09T05:20:24.084Z,23.74
2024-01-09T05:21:24.060Z,23.75
2024-01-09T05:22:24.050Z,23.72
2024-01-09T05:23:24.087Z,23.80
2024-01-09T05:24:24.035Z,23.75
2024-01-09T05:25:24.041Z,23.69
2024-01-09T05:26:24.065Z,23.62
2024-01-09T05:27:24.005Z,23.66
2024-01-09T05:28:24.265Z,23.77
2024-01-09T05:29:24.045Z,23.69
2024-01-09T05:30:24.308Z,23.74
2024-01-09T05:31:24.647Z,23.75
2024-01-09T05:32:24.063Z,23.78
2024-01-09T05:33:24.177Z,23.75
2024-01-09T05:34:24.043Z,23.73
2024-01-09T05:35:23.948Z,23.77
2024-01-09T05:36:24.754Z,23.62
2024-01-09T05:37:23.000Z,23.74
2024-01-09T05:38:24.060Z,23.74
2024-01-09T05:39:23.902Z,23.70
2024-01-09T05:40:23.911Z,23.73
2024-01-09T05:41:24.117Z,23.69
2024-01-09T05:42:26.756Z,23.69
2024-01-09T05:43:22.871Z,23.68
2024-01-09T05:44:26.821Z,23.63
2024-01-09T05:45:23.843Z,23.69
2024-01-09T05:46:24.755Z,23.73
2024-01-09T05:47:23.874Z,23.69
2024-01-09T05:48:24.425Z,23.73
2024-01-09T05:49:24.862Z,23.72
2024-01-09T05:50:23.835Z,23.70
2024-01-09T05:51:23.802Z,23.70
2024-01-09T05:52:26.760Z,23.70
2024-01-09T05:53:23.798Z,23.69
2024-01-09T05:54:22.773Z,23.73
2024-01-09T05:55:23.763Z,23.74
2024-01-09T05:56:23.835Z,23.70
2024-01-09T05:57:23.747Z,23.73
2024-01-09T05:58:23.732Z,23.67
2024-01-09T05:59:23.743Z,23.55
2024-01-09T06:00:23.779Z,23.63
2024-01-09T06:01:23.750Z,23.68
2024-01-09T06:02:23.737Z,23.65
2024-01-09T06:03:23.697Z,23.69
2024-01-09T06:04:23.678Z,23.74
2024-01-09T06:05:24.481Z,23.69
2024-01-09T06:06:23.708Z,23.72
2024-01-09T06:07:23.673Z,23.68
2024-01-09T06:08:23.669Z,23.69
2024-01-09T06:09:23.643Z,23.66
2024-01-09T06:10:23.654Z,23.65
2024-01-09T06:11:24.283Z,23.59
2024-01-09T06:12:23.612Z,23.69
2024-01-09T06:13:22.603Z,23.61
2024-01-09T06:14:23.650Z,23.55
2024-01-09T06:15:23.639Z,23.62
2024-01-09T06:16:23.695Z,23.68
2024-01-09T06:17:23.645Z,23.68
2024-01-09T06:18:24.442Z,23.65
2024-01-09T06:19:26.927Z,23.69
2024-01-09T06:20:23.638Z,23.51
2024-01-09T06:21:23.559Z,23.41
2024-01-09T06:22:26.566Z,23.49
2024-01-09T06:23:23.538Z,23.61
2024-01-09T06:24:23.517Z,23.65
2024-01-09T06:25:23.521Z,23.57
2024-01-09T06:26:23.522Z,23.58
2024-01-09T06:27:23.495Z,23.62
2024-01-09T06:28:23.463Z,23.65
2024-01-09T06:29:23.839Z,23.59
2024-01-09T06:30:23.551Z,23.65
2024-01-09T06:31:23.776Z,23.62
2024-01-09T06:32:23.589Z,23.62
2024-01-09T06:33:23.528Z,23.65
2024-01-09T06:34:23.462Z,23.69
2024-01-09T06:35:23.850Z,23.59
2024-01-09T06:36:23.402Z,23.54
2024-01-09T06:37:23.434Z,23.59
2024-01-09T06:38:23.400Z,23.61
2024-01-09T06:39:23.382Z,23.63
2024-01-09T06:40:22.371Z,22.41
2024-01-09T06:41:23.845Z,21.72
2024-01-09T06:42:23.341Z,21.65
2024-01-09T06:43:23.338Z,21.51
2024-01-09T06:44:23.350Z,21.42
2024-01-09T06:45:23.808Z,21.44
2024-01-09T06:46:23.308Z,21.48
2024-01-09T06:47:23.387Z,21.46
2024-01-09T06:48:23.581Z,21.43
2024-01-09T06:49:23.307Z,21.26
2024-01-09T06:50:33.052Z,21.59
2024-01-09T06:51:23.348Z,21.69
2024-01-09T06:52:24.383Z,21.88
2024-01-09T06:53:23.246Z,22.25
2024-01-09T06:54:23.778Z,22.84
2024-01-09T06:55:24.294Z,23.09
2024-01-09T06:56:23.673Z,23.16
2024-01-09T06:57:23.223Z,23.45
2024-01-09T06:58:55.134Z,23.81
2024-01-09T06:59:25.295Z,24.03
2024-01-09T07:00:22.242Z,24.32
2024-01-09T07:01:23.448Z,24.50
2024-01-09T07:02:23.177Z,24.53
2024-01-09T07:03:23.177Z,24.60
2024-01-09T07:04:23.299Z,24.72
2024-01-09T07:05:23.300Z,24.79
2024-01-09T07:06:25.755Z,25.01
2024-01-09T07:07:34.648Z,25.18
2024-01-09T07:08:23.157Z,25.28
2024-01-09T07:09:23.101Z,25.39
2024-01-09T07:10:23.087Z,25.52
2024-01-09T07:11:23.317Z,25.43
2024-01-09T07:12:23.070Z,25.55
2024-01-09T07:13:23.806Z,25.57
2024-01-09T07:14:23.169Z,25.58
2024-01-09T07:15:23.120Z,25.70
2024-01-09T07:16:23.309Z,25.88
2024-01-09T07:17:23.127Z,25.89
2024-01-09T07:18:23.064Z,25.74
2024-01-09T07:19:23.057Z,25.74
2024-01-09T07:20:23.036Z,25.85
2024-01-09T07:21:23.297Z,25.93
2024-01-09T07:22:22.986Z,25.99
2024-01-09T07:23:23.075Z,25.90
2024-01-09T07:24:23.023Z,26.06
2024-01-09T07:25:23.249Z,25.99
2024-01-09T07:26:23.309Z,25.92
2024-01-09T07:27:22.924Z,26.09
2024-01-09T07:28:22.922Z,26.29
2024-01-09T07:29:22.933Z,26.02
2024-01-09T07:30:21.911Z,26.06
2024-01-09T07:31:23.316Z,26.12
2024-01-09T07:32:22.923Z,25.93
2024-01-09T07:33:23.441Z,26.17
2024-01-09T07:34:22.954Z,26.23
2024-01-09T07:35:22.939Z,26.20
2024-01-09T07:36:22.867Z,26.04
2024-01-09T07:37:22.850Z,26.15
2024-01-09T07:38:22.345Z,26.26
2024-01-09T07:39:22.806Z,26.23
2024-01-09T07:40:23.301Z,26.31
2024-01-09T07:41:22.828Z,26.42
2024-01-09T07:42:22.780Z,26.29
2024-01-09T07:43:22.779Z,26.34
2024-01-09T07:44:22.776Z,26.33
2024-01-09T07:45:22.860Z,26.37
2024-01-09T07:46:22.760Z,26.65
2024-01-09T07:47:22.949Z,26.39
2024-01-09T07:48:23.201Z,26.47
2024-01-09T07:49:22.826Z,26.57
2024-01-09T07:50:22.744Z,26.70
2024-01-09T07:51:22.703Z,26.77
2024-01-09T07:52:22.713Z,26.61
2024-01-09T07:53:23.727Z,26.63
2024-01-09T07:54:21.697Z,26.61
2024-01-09T07:55:22.660Z,26.54
2024-01-09T07:56:22.671Z,26.48
2024-01-09T07:57:23.106Z,26.51
2024-01-09T07:58:21.637Z,26.62
2024-01-09T07:59:22.822Z,26.35
2024-01-09T08:00:22.622Z,26.31
2024-01-09T08:01:22.737Z,26.30
2024-01-09T08:02:23.358Z,26.35
2024-01-09T08:03:23.214Z,26.47
2024-01-09T08:04:22.846Z,26.57
2024-01-09T08:05:22.603Z,26.40
2024-01-09T08:06:22.709Z,26.36
2024-01-09T08:07:22.592Z,26.66
2024-01-09T08:08:22.626Z,26.46
2024-01-09T08:09:23.821Z,26.30
2024-01-09T08:10:22.690Z,26.57
2024-01-09T08:11:23.404Z,26.61
2024-01-09T08:12:22.712Z,26.41
2024-01-09T08:13:22.666Z,26.52
2024-01-09T08:14:22.818Z,26.27
2024-01-09T08:15:22.738Z,26.50
2024-01-09T08:16:22.834Z,26.63
2024-01-09T08:17:22.688Z,26.74
2024-01-09T08:18:23.580Z,26.61
2024-01-09T08:19:22.961Z,26.93
2024-01-09T08:20:21.656Z,26.81
2024-01-09T08:21:23.317Z,27.00
2024-01-09T08:22:22.613Z,27.15
2024-01-09T08:23:22.622Z,27.11
2024-01-09T08:24:22.866Z,27.25
2024-01-09T08:25:22.562Z,27.26
2024-01-09T08:26:22.838Z,26.47
2024-01-09T08:27:22.517Z,26.21
2024-01-09T08:28:22.840Z,26.96
2024-01-09T08:29:22.550Z,27.48
2024-01-09T08:30:22.681Z,27.89
2024-01-09T08:31:22.917Z,27.88
2024-01-09T08:32:22.693Z,28.00
2024-01-09T08:33:25.895Z,27.97
2024-01-09T08:34:22.646Z,28.33
2024-01-09T08:35:22.548Z,28.75
2024-01-09T08:36:22.846Z,28.38
2024-01-09T08:37:22.866Z,28.41
2024-01-09T08:38:22.474Z,28.31
2024-01-09T08:39:22.426Z,28.29
2024-01-09T08:40:22.447Z,28.25
2024-01-09T08:41:22.894Z,28.29
2024-01-09T08:42:22.428Z,28.18
2024-01-09T08:43:22.394Z,26.81
2024-01-09T08:44:22.403Z,23.41
2024-01-09T08:45:22.361Z,23.94
2024-01-09T08:46:21.843Z,22.23
2024-01-09T08:47:22.423Z,22.54
2024-01-09T08:48:21.503Z,22.37
2024-01-09T08:49:22.412Z,22.66
2024-01-09T08:50:22.409Z,23.89
2024-01-09T08:51:24.607Z,26.37
2024-01-09T08:52:22.405Z,26.20
2024-01-09T08:53:22.375Z,26.96
2024-01-09T08:54:22.271Z,27.62
2024-01-09T08:55:22.258Z,28.20
2024-01-09T08:56:22.401Z,28.33
2024-01-09T08:57:23.288Z,28.69
2024-01-09T08:58:22.241Z,28.79
2024-01-09T08:59:22.309Z,28.96
2024-01-09T09:00:22.225Z,29.12
2024-01-09T09:01:22.516Z,29.22
2024-01-09T09:02:22.279Z,29.05
2024-01-09T09:03:25.001Z,29.21
2024-01-09T09:04:22.196Z,29.19
2024-01-09T09:05:22.302Z,29.15
2024-01-09T09:06:22.407Z,29.19
2024-01-09T09:07:22.348Z,29.21
2024-01-09T09:08:22.164Z,29.21
2024-01-09T09:09:25.857Z,29.21
2024-01-09T09:10:22.131Z,29.23
2024-01-09T09:11:22.140Z,29.25
2024-01-09T09:12:22.362Z,29.28
2024-01-09T09:13:21.100Z,29.24
2024-01-09T09:14:22.138Z,29.36
2024-01-09T09:15:22.843Z,29.28
2024-01-09T09:16:22.338Z,29.16
2024-01-09T09:17:22.088Z,29.17
2024-01-09T09:18:22.139Z,29.15
2024-01-09T09:19:22.118Z,29.04
2024-01-09T09:20:22.144Z,29.24
2024-01-09T09:21:22.343Z,29.19
2024-01-09T09:22:22.410Z,29.26
2024-01-09T09:23:22.088Z,29.33
2024-01-09T09:24:21.999Z,29.30
2024-01-09T09:25:22.357Z,29.30
2024-01-09T09:26:22.127Z,29.22
2024-01-09T09:27:22.355Z,29.27
2024-01-09T09:28:21.995Z,29.32
2024-01-09T09:29:28.505Z,29.42
2024-01-09T09:30:21.999Z,29.47
2024-01-09T09:31:22.362Z,29.86
2024-01-09T09:32:21.966Z,29.62
2024-01-09T09:33:22.026Z,29.55
2024-01-09T09:34:22.891Z,29.62
2024-01-09T09:35:21.919Z,29.65
2024-01-09T09:36:22.355Z,29.70
2024-01-09T09:37:21.883Z,29.70
2024-01-09T09:38:21.922Z,29.80
2024-01-09T09:39:21.890Z,29.86
2024-01-09T09:40:22.850Z,29.94
2024-01-09T09:41:21.921Z,30.13
2024-01-09T09:42:21.834Z,30.04
2024-01-09T09:43:22.362Z,30.17
2024-01-09T09:44:25.104Z,30.16
2024-01-09T09:45:21.812Z,30.34
2024-01-09T09:46:21.976Z,30.29
2024-01-09T09:47:22.063Z,30.33
2024-01-09T09:48:21.875Z,30.40
2024-01-09T09:49:21.879Z,30.51
2024-01-09T09:50:21.812Z,30.62
2024-01-09T09:51:29.186Z,30.59
2024-01-09T09:52:21.763Z,30.66
2024-01-09T09:53:21.819Z,30.61
2024-01-09T09:54:21.728Z,30.68
2024-01-09T09:55:21.711Z,30.75
2024-01-09T09:56:21.904Z,30.83
2024-01-09T09:57:21.704Z,30.87
2024-01-09T09:58:21.881Z,30.82
2024-01-09T09:59:21.779Z,30.93
2024-01-09T10:00:21.687Z,30.88
2024-01-09T10:01:21.712Z,30.93
2024-01-09T10:02:24.126Z,31.04
2024-01-09T10:03:21.772Z,31.00
2024-01-09T10:04:21.753Z,31.00
2024-01-09T10:05:24.483Z,31.16
2024-01-09T10:06:22.638Z,31.09
2024-01-09T10:07:21.637Z,31.15
2024-01-09T10:08:21.685Z,31.21
2024-01-09T10:09:21.594Z,31.31
2024-01-09T10:10:21.593Z,31.48
2024-01-09T10:11:21.613Z,31.39
2024-01-09T10:12:21.562Z,31.51
2024-01-09T10:13:21.895Z,31.55
2024-01-09T10:14:21.611Z,31.48
2024-01-09T10:15:21.911Z,31.58
2024-01-09T10:16:21.570Z,31.48
2024-01-09T10:17:22.557Z,31.49
2024-01-09T10:18:21.761Z,31.73
2024-01-09T10:19:21.542Z,31.67
2024-01-09T10:20:25.159Z,31.70
2024-01-09T10:21:21.904Z,31.72
2024-01-09T10:22:21.503Z,31.79
2024-01-09T10:23:21.516Z,31.71
2024-01-09T10:24:21.907Z,31.77
2024-01-09T10:25:24.708Z,31.79
2024-01-09T10:26:21.535Z,31.81
2024-01-09T10:27:21.448Z,31.80
2024-01-09T10:28:21.887Z,31.88
2024-01-09T10:29:21.927Z,31.95
2024-01-09T10:30:22.858Z,32.15
2024-01-09T10:31:21.576Z,27.62
2024-01-09T10:32:21.567Z,28.95
2024-01-09T10:33:22.779Z,30.72
2024-01-09T10:34:21.975Z,31.40
2024-01-09T10:35:22.466Z,31.60
2024-01-09T10:36:21.471Z,31.32
2024-01-09T10:37:21.436Z,31.40
2024-01-09T10:38:21.886Z,31.51
2024-01-09T10:39:21.915Z,22.17
2024-01-09T10:40:21.474Z,21.90
2024-01-09T10:41:21.546Z,21.39
2024-01-09T10:42:21.447Z,21.65
2024-01-09T10:43:21.910Z,21.83
2024-01-09T10:44:21.900Z,23.90
2024-01-09T10:45:21.886Z,24.79
2024-01-09T10:46:21.442Z,25.46
2024-01-09T10:47:21.626Z,26.39
2024-01-09T10:48:21.502Z,27.90
2024-01-09T10:49:23.462Z,29.36
2024-01-09T10:50:21.572Z,30.11
2024-01-09T10:51:21.416Z,30.52
2024-01-09T10:52:21.455Z,30.60
2024-01-09T10:53:21.637Z,30.78
2024-01-09T10:54:21.306Z,30.95
2024-01-09T10:55:22.384Z,31.03
2024-01-09T10:56:20.294Z,31.12
2024-01-09T10:57:21.450Z,31.16
2024-01-09T10:58:21.250Z,31.11
2024-01-09T10:59:22.273Z,31.13
2024-01-09T11:00:21.384Z,31.01
2024-01-09T11:01:21.460Z,30.98
2024-01-09T11:02:21.259Z,30.98
2024-01-09T11:03:21.651Z,30.92
2024-01-09T11:04:21.720Z,30.88
2024-01-09T11:05:21.455Z,30.80
2024-01-09T11:06:21.469Z,30.81
2024-01-09T11:07:21.569Z,30.75
2024-01-09T11:08:21.497Z,30.73
2024-01-09T11:09:21.798Z,30.73
2024-01-09T11:10:21.366Z,30.70
2024-01-09T11:11:21.461Z,30.69
2024-01-09T11:12:21.979Z,30.71
2024-01-09T11:13:22.305Z,30.69
2024-01-09T11:14:21.269Z,30.75
2024-01-09T11:15:21.769Z,30.71
2024-01-09T11:16:21.091Z,30.80
2024-01-09T11:17:21.140Z,30.78
2024-01-09T11:18:21.128Z,30.73
2024-01-09T11:19:21.123Z,30.76
2024-01-09T11:20:21.521Z,30.80
2024-01-09T11:21:21.384Z,30.85
2024-01-09T11:22:21.017Z,30.91
2024-01-09T11:23:21.427Z,30.83
2024-01-09T11:24:21.007Z,30.96
2024-01-09T11:25:21.037Z,30.81
2024-01-09T11:26:21.124Z,30.86
2024-01-09T11:27:21.028Z,28.28
2024-01-09T11:28:21.408Z,22.68
2024-01-09T11:29:21.044Z,25.27
2024-01-09T11:30:21.007Z,26.68
2024-01-09T11:31:20.980Z,27.15
2024-01-09T11:32:21.417Z,27.59
2024-01-09T11:33:21.091Z,29.01
2024-01-09T11:34:21.486Z,30.08
2024-01-09T11:35:20.956Z,30.42
2024-01-09T11:36:20.909Z,30.69
2024-01-09T11:37:20.896Z,30.76
2024-01-09T11:38:20.943Z,30.97
2024-01-09T11:39:20.980Z,30.93
2024-01-09T11:40:20.856Z,31.02
2024-01-09T11:41:20.961Z,31.01
2024-01-09T11:42:21.861Z,31.20
2024-01-09T11:43:20.914Z,31.26
2024-01-09T11:44:20.836Z,31.38
2024-01-09T11:45:20.828Z,31.33
2024-01-09T11:46:20.845Z,31.38
2024-01-09T11:47:20.901Z,31.48
2024-01-09T11:48:21.515Z,31.48
2024-01-09T11:49:21.050Z,31.49
2024-01-09T11:50:20.792Z,31.58
2024-01-09T11:51:20.744Z,31.71
2024-01-09T11:52:20.764Z,31.74
2024-01-09T11:53:20.761Z,31.74
2024-01-09T11:54:20.895Z,31.84
2024-01-09T11:55:20.733Z,31.92
2024-01-09T11:56:20.812Z,31.95
2024-01-09T11:57:20.741Z,31.98
2024-01-09T11:58:20.680Z,32.09
2024-01-09T11:59:20.976Z,32.13
2024-01-09T12:00:20.700Z,32.10
2024-01-09T12:01:20.891Z,32.20
2024-01-09T12:02:21.712Z,32.00
2024-01-09T12:03:20.640Z,32.27
2024-01-09T12:04:20.080Z,32.31
2024-01-09T12:05:20.700Z,32.36
2024-01-09T12:06:20.728Z,32.43
2024-01-09T12:07:20.945Z,32.36
2024-01-09T12:08:20.641Z,32.48
2024-01-09T12:09:20.936Z,32.49
2024-01-09T12:10:29.992Z,32.62
2024-01-09T12:11:20.620Z,32.63
2024-01-09T12:12:20.925Z,32.00
2024-01-09T12:13:20.585Z,29.73
2024-01-09T12:14:20.956Z,26.58
2024-01-09T12:15:20.662Z,25.17
2024-01-09T12:16:20.920Z,24.72
2024-01-09T12:17:20.965Z,24.48
2024-01-09T12:18:20.670Z,24.58
2024-01-09T12:19:20.561Z,24.53
2024-01-09T12:20:20.582Z,24.81
2024-01-09T12:21:21.421Z,25.46
2024-01-09T12:22:20.487Z,25.60
2024-01-09T12:23:20.543Z,25.81
2024-01-09T12:24:24.251Z,26.02
2024-01-09T12:25:20.447Z,26.93
2024-01-09T12:26:20.454Z,28.07
2024-01-09T12:27:21.434Z,28.43
2024-01-09T12:28:20.425Z,28.61
2024-01-09T12:29:20.472Z,28.67
2024-01-09T12:30:21.038Z,28.63
2024-01-09T12:31:20.707Z,28.63
2024-01-09T12:32:20.730Z,28.64
2024-01-09T12:33:21.161Z,28.62
2024-01-09T12:34:21.144Z,28.58
2024-01-09T12:35:20.383Z,28.57
2024-01-09T12:36:20.921Z,28.50
2024-01-09T12:37:20.834Z,28.51
2024-01-09T12:38:20.370Z,28.47
2024-01-09T12:39:21.295Z,28.53
2024-01-09T12:40:20.931Z,28.48
2024-01-09T12:41:20.324Z,28.44
2024-01-09T12:42:20.421Z,28.40
2024-01-09T12:43:20.312Z,28.40
2024-01-09T12:44:20.570Z,28.39
2024-01-09T12:45:20.958Z,28.33
2024-01-09T12:46:20.341Z,28.33
2024-01-09T12:47:20.286Z,28.29
2024-01-09T12:48:20.342Z,28.26
2024-01-09T12:49:20.563Z,28.22
2024-01-09T12:50:20.366Z,28.25
2024-01-09T12:51:20.639Z,28.25
2024-01-09T12:52:20.244Z,28.18
2024-01-09T12:53:20.284Z,28.20
2024-01-09T12:54:20.454Z,28.14
2024-01-09T12:55:20.949Z,28.18
2024-01-09T12:56:20.389Z,28.20
2024-01-09T12:57:20.215Z,28.02
2024-01-09T12:58:20.244Z,28.06
2024-01-09T12:59:20.453Z,28.08
2024-01-09T13:00:20.219Z,28.04
2024-01-09T13:01:20.234Z,28.03
2024-01-09T13:02:20.220Z,27.99
2024-01-09T13:03:20.499Z,27.95
2024-01-09T13:04:20.116Z,27.96
2024-01-09T13:05:20.609Z,27.96
2024-01-09T13:06:20.238Z,27.97
2024-01-09T13:07:20.049Z,27.93
2024-01-09T13:08:20.263Z,27.93
2024-01-09T13:09:20.061Z,27.87
2024-01-09T13:10:20.493Z,27.84
2024-01-09T13:11:20.147Z,27.81
2024-01-09T13:12:20.067Z,27.85
2024-01-09T13:13:19.991Z,27.81
2024-01-09T13:14:20.464Z,27.78
2024-01-09T13:15:19.983Z,27.78
2024-01-09T13:16:20.432Z,27.81
2024-01-09T13:17:19.992Z,27.84
2024-01-09T13:18:19.982Z,27.82
2024-01-09T13:19:20.609Z,27.77
2024-01-09T13:20:19.069Z,27.77
2024-01-09T13:21:20.005Z,27.77
2024-01-09T13:24:19.286Z,25.29
2024-01-09T13:25:19.894Z,25.40
2024-01-09T13:26:20.030Z,24.90
2024-01-09T13:27:19.870Z,26.07
2024-01-09T13:28:20.493Z,31.59
2024-01-09T13:30:46.108Z,35.89
2024-01-09T13:30:47.322Z,31.09
2024-01-09T13:31:19.872Z,32.89
2024-01-09T13:32:19.880Z,34.57
2024-01-09T13:33:19.881Z,38.04
2024-01-09T13:34:20.547Z,35.13
2024-01-09T13:35:19.863Z,36.51
2024-01-09T13:36:20.318Z,32.43
2024-01-09T13:37:18.891Z,33.52
2024-01-09T13:38:20.445Z,33.82
2024-01-09T13:39:19.900Z,31.78
2024-01-09T13:40:19.876Z,32.10
2024-01-09T13:41:19.889Z,33.09
2024-01-09T13:42:19.869Z,32.68
2024-01-09T13:43:19.839Z,32.15
2024-01-09T13:44:19.909Z,31.73
2024-01-09T13:45:19.845Z,31.52
2024-01-09T13:46:20.506Z,31.44